sensor_id;sensor_type;location;lat;lon;timestamp;temperature;humidity
7447;DHT22;3765;47.962;7.952;2023-04-06T00:00:08;1.90;57.50
7447;DHT22;3765;47.962;7.952;2023-04-06T00:02:38;1.80;57.40
7447;DHT22;3765;47.962;7.952;2023-04-06T00:05:07;1.80;57.80
7447;DHT22;3765;47.962;7.952;2023-04-06T00:07:35;1.80;57.90
7447;DHT22;3765;47.962;7.952;2023-04-06T00:10:04;1.70;57.90
7447;DHT22;3765;47.962;7.952;2023-04-06T00:12:33;1.80;58.20
7447;DHT22;3765;47.962;7.952;2023-04-06T00:15:05;1.70;58.20
7447;DHT22;3765;47.962;7.952;2023-04-06T00:17:33;1.80;58.30
7447;DHT22;3765;47.962;7.952;2023-04-06T00:20:05;1.80;58.30
7447;DHT22;3765;47.962;7.952;2023-04-06T00:22:33;1.70;58.20
7447;DHT22;3765;47.962;7.952;2023-04-06T00:25:02;1.60;58.50
7447;DHT22;3765;47.962;7.952;2023-04-06T00:27:30;1.50;58.60
7447;DHT22;3765;47.962;7.952;2023-04-06T00:29:59;1.50;58.70
7447;DHT22;3765;47.962;7.952;2023-04-06T00:32:27;1.50;58.70
7447;DHT22;3765;47.962;7.952;2023-04-06T00:34:55;1.50;58.80
7447;DHT22;3765;47.962;7.952;2023-04-06T00:37:25;1.50;58.80
7447;DHT22;3765;47.962;7.952;2023-04-06T00:39:53;1.50;59.00
7447;DHT22;3765;47.962;7.952;2023-04-06T00:42:22;1.50;59.00
7447;DHT22;3765;47.962;7.952;2023-04-06T00:44:53;1.50;59.00
7447;DHT22;3765;47.962;7.952;2023-04-06T00:47:22;1.40;59.10
7447;DHT22;3765;47.962;7.952;2023-04-06T00:49:52;1.30;59.20
7447;DHT22;3765;47.962;7.952;2023-04-06T00:52:20;1.40;59.20
7447;DHT22;3765;47.962;7.952;2023-04-06T00:54:50;1.30;59.40
7447;DHT22;3765;47.962;7.952;2023-04-06T00:57:19;1.30;59.50
7447;DHT22;3765;47.962;7.952;2023-04-06T00:59:47;1.30;59.40
7447;DHT22;3765;47.962;7.952;2023-04-06T01:02:15;1.30;59.50
7447;DHT22;3765;47.962;7.952;2023-04-06T01:04:44;1.30;59.40
7447;DHT22;3765;47.962;7.952;2023-04-06T01:07:12;1.20;59.40
7447;DHT22;3765;47.962;7.952;2023-04-06T01:09:40;1.20;59.50
7447;DHT22;3765;47.962;7.952;2023-04-06T01:12:10;1.20;59.60
7447;DHT22;3765;47.962;7.952;2023-04-06T01:14:38;1.10;59.60
7447;DHT22;3765;47.962;7.952;2023-04-06T01:17:07;1.10;59.60
7447;DHT22;3765;47.962;7.952;2023-04-06T01:19:36;1.00;59.90
7447;DHT22;3765;47.962;7.952;2023-04-06T01:22:04;1.00;59.90
7447;DHT22;3765;47.962;7.952;2023-04-06T01:24:34;1.00;60.00
7447;DHT22;3765;47.962;7.952;2023-04-06T01:27:02;1.10;60.00
7447;DHT22;3765;47.962;7.952;2023-04-06T01:29:30;1.10;60.10
7447;DHT22;3765;47.962;7.952;2023-04-06T01:31:59;1.00;60.00
7447;DHT22;3765;47.962;7.952;2023-04-06T01:34:29;1.00;60.20
7447;DHT22;3765;47.962;7.952;2023-04-06T01:36:57;1.00;60.30
7447;DHT22;3765;47.962;7.952;2023-04-06T01:39:25;0.90;60.40
7447;DHT22;3765;47.962;7.952;2023-04-06T01:41:55;1.00;60.30
7447;DHT22;3765;47.962;7.952;2023-04-06T01:44:23;0.90;60.30
7447;DHT22;3765;47.962;7.952;2023-04-06T01:46:51;0.90;60.40
7447;DHT22;3765;47.962;7.952;2023-04-06T01:49:20;0.90;60.50
7447;DHT22;3765;47.962;7.952;2023-04-06T01:51:48;0.90;60.50
7447;DHT22;3765;47.962;7.952;2023-04-06T01:54:17;0.80;60.50
7447;DHT22;3765;47.962;7.952;2023-04-06T01:56:45;0.80;60.60
7447;DHT22;3765;47.962;7.952;2023-04-06T01:59:15;0.80;60.60
7447;DHT22;3765;47.962;7.952;2023-04-06T02:01:43;0.80;60.70
7447;DHT22;3765;47.962;7.952;2023-04-06T02:04:12;0.80;60.60
7447;DHT22;3765;47.962;7.952;2023-04-06T02:06:41;0.80;60.60
7447;DHT22;3765;47.962;7.952;2023-04-06T02:09:09;0.80;60.60
7447;DHT22;3765;47.962;7.952;2023-04-06T02:11:37;0.80;60.60
7447;DHT22;3765;47.962;7.952;2023-04-06T02:14:05;0.80;60.60
7447;DHT22;3765;47.962;7.952;2023-04-06T02:16:35;0.80;60.60
7447;DHT22;3765;47.962;7.952;2023-04-06T02:19:03;0.70;60.70
7447;DHT22;3765;47.962;7.952;2023-04-06T02:21:32;0.60;60.80
7447;DHT22;3765;47.962;7.952;2023-04-06T02:24:00;0.60;60.90
7447;DHT22;3765;47.962;7.952;2023-04-06T02:26:28;0.60;61.00
7447;DHT22;3765;47.962;7.952;2023-04-06T02:28:57;0.60;61.00
7447;DHT22;3765;47.962;7.952;2023-04-06T02:31:25;0.60;61.10
7447;DHT22;3765;47.962;7.952;2023-04-06T02:33:55;0.60;61.10
7447;DHT22;3765;47.962;7.952;2023-04-06T02:36:23;0.60;61.20
7447;DHT22;3765;47.962;7.952;2023-04-06T02:38:51;0.60;61.30
7447;DHT22;3765;47.962;7.952;2023-04-06T02:41:19;0.60;61.20
7447;DHT22;3765;47.962;7.952;2023-04-06T02:43:48;0.50;61.30
7447;DHT22;3765;47.962;7.952;2023-04-06T02:46:16;0.50;61.30
7447;DHT22;3765;47.962;7.952;2023-04-06T02:48:44;0.50;61.40
7447;DHT22;3765;47.962;7.952;2023-04-06T02:51:14;0.60;61.40
7447;DHT22;3765;47.962;7.952;2023-04-06T02:53:42;0.50;61.40
7447;DHT22;3765;47.962;7.952;2023-04-06T02:56:10;0.50;61.50
7447;DHT22;3765;47.962;7.952;2023-04-06T02:58:39;0.50;61.50
7447;DHT22;3765;47.962;7.952;2023-04-06T03:01:07;0.50;61.40
7447;DHT22;3765;47.962;7.952;2023-04-06T03:03:35;0.50;61.50
7447;DHT22;3765;47.962;7.952;2023-04-06T03:06:04;0.50;61.50
7447;DHT22;3765;47.962;7.952;2023-04-06T03:08:34;0.50;61.50
7447;DHT22;3765;47.962;7.952;2023-04-06T03:11:02;0.50;61.50
7447;DHT22;3765;47.962;7.952;2023-04-06T03:13:31;0.50;61.60
7447;DHT22;3765;47.962;7.952;2023-04-06T03:15:59;0.40;61.60
7447;DHT22;3765;47.962;7.952;2023-04-06T03:18:28;0.40;61.70
7447;DHT22;3765;47.962;7.952;2023-04-06T03:20:56;0.40;61.80
7447;DHT22;3765;47.962;7.952;2023-04-06T03:23:24;0.40;61.80
7447;DHT22;3765;47.962;7.952;2023-04-06T03:25:54;0.30;61.90
7447;DHT22;3765;47.962;7.952;2023-04-06T03:28:22;0.30;61.90
7447;DHT22;3765;47.962;7.952;2023-04-06T03:30:50;0.20;62.10
7447;DHT22;3765;47.962;7.952;2023-04-06T03:33:19;0.20;62.30
7447;DHT22;3765;47.962;7.952;2023-04-06T03:35:47;0.20;62.30
7447;DHT22;3765;47.962;7.952;2023-04-06T03:38:15;0.20;62.40
7447;DHT22;3765;47.962;7.952;2023-04-06T03:40:44;0.20;62.50
7447;DHT22;3765;47.962;7.952;2023-04-06T03:43:13;0.20;62.50
7447;DHT22;3765;47.962;7.952;2023-04-06T03:45:42;0.20;62.50
7447;DHT22;3765;47.962;7.952;2023-04-06T03:48:10;0.20;62.40
7447;DHT22;3765;47.962;7.952;2023-04-06T03:50:38;0.20;62.60
7447;DHT22;3765;47.962;7.952;2023-04-06T03:53:07;0.20;62.60
7447;DHT22;3765;47.962;7.952;2023-04-06T03:55:37;0.10;62.60
7447;DHT22;3765;47.962;7.952;2023-04-06T03:58:05;0.20;62.60
7447;DHT22;3765;47.962;7.952;2023-04-06T04:00:34;0.10;62.70
7447;DHT22;3765;47.962;7.952;2023-04-06T04:03:03;0.20;62.80
7447;DHT22;3765;47.962;7.952;2023-04-06T04:05:31;0.10;62.80
7447;DHT22;3765;47.962;7.952;2023-04-06T04:07:59;0.10;62.90
7447;DHT22;3765;47.962;7.952;2023-04-06T04:10:28;0.10;62.80
7447;DHT22;3765;47.962;7.952;2023-04-06T04:12:56;0.10;62.80
7447;DHT22;3765;47.962;7.952;2023-04-06T04:15:24;0.10;62.90
7447;DHT22;3765;47.962;7.952;2023-04-06T04:17:54;0.10;62.90
7447;DHT22;3765;47.962;7.952;2023-04-06T04:20:24;0.00;63.00
7447;DHT22;3765;47.962;7.952;2023-04-06T04:22:53;0.00;63.10
7447;DHT22;3765;47.962;7.952;2023-04-06T04:25:21;0.00;63.00
7447;DHT22;3765;47.962;7.952;2023-04-06T04:27:49;0.00;63.10
7447;DHT22;3765;47.962;7.952;2023-04-06T04:30:18;0.00;63.10
7447;DHT22;3765;47.962;7.952;2023-04-06T04:32:46;0.00;63.10
7447;DHT22;3765;47.962;7.952;2023-04-06T04:35:16;0.00;63.30
7447;DHT22;3765;47.962;7.952;2023-04-06T04:37:44;0.00;63.30
7447;DHT22;3765;47.962;7.952;2023-04-06T04:40:13;0.00;63.50
7447;DHT22;3765;47.962;7.952;2023-04-06T04:42:41;0.00;63.50
7447;DHT22;3765;47.962;7.952;2023-04-06T04:45:10;0.00;63.60
7447;DHT22;3765;47.962;7.952;2023-04-06T04:47:38;0.00;63.50
7447;DHT22;3765;47.962;7.952;2023-04-06T04:50:07;0.00;63.50
7447;DHT22;3765;47.962;7.952;2023-04-06T04:52:37;0.10;63.60
7447;DHT22;3765;47.962;7.952;2023-04-06T04:55:06;0.10;63.60
7447;DHT22;3765;47.962;7.952;2023-04-06T04:57:34;0.10;63.60
7447;DHT22;3765;47.962;7.952;2023-04-06T05:00:03;0.00;63.50
7447;DHT22;3765;47.962;7.952;2023-04-06T05:02:31;0.00;63.60
7447;DHT22;3765;47.962;7.952;2023-04-06T05:05:00;0.00;63.60
7447;DHT22;3765;47.962;7.952;2023-04-06T05:07:28;0.00;63.70
7447;DHT22;3765;47.962;7.952;2023-04-06T05:09:58;0.00;63.70
7447;DHT22;3765;47.962;7.952;2023-04-06T05:12:27;0.00;63.70
7447;DHT22;3765;47.962;7.952;2023-04-06T05:14:55;0.00;63.70
7447;DHT22;3765;47.962;7.952;2023-04-06T05:17:23;0.00;63.90
7447;DHT22;3765;47.962;7.952;2023-04-06T05:19:52;0.00;64.00
7447;DHT22;3765;47.962;7.952;2023-04-06T05:22:20;0.00;64.00
7447;DHT22;3765;47.962;7.952;2023-04-06T05:24:49;0.00;64.20
7447;DHT22;3765;47.962;7.952;2023-04-06T05:27:18;0.10;64.00
7447;DHT22;3765;47.962;7.952;2023-04-06T05:29:47;0.10;64.00
7447;DHT22;3765;47.962;7.952;2023-04-06T05:32:15;0.10;64.10
7447;DHT22;3765;47.962;7.952;2023-04-06T05:34:43;0.30;64.10
7447;DHT22;3765;47.962;7.952;2023-04-06T05:37:12;0.30;63.90
7447;DHT22;3765;47.962;7.952;2023-04-06T05:39:40;0.50;64.00
7447;DHT22;3765;47.962;7.952;2023-04-06T05:42:08;0.60;63.90
7447;DHT22;3765;47.962;7.952;2023-04-06T05:44:38;0.70;63.80
7447;DHT22;3765;47.962;7.952;2023-04-06T05:47:06;0.80;63.70
7447;DHT22;3765;47.962;7.952;2023-04-06T05:49:35;1.00;63.50
7447;DHT22;3765;47.962;7.952;2023-04-06T05:52:03;1.20;63.30
7447;DHT22;3765;47.962;7.952;2023-04-06T05:54:32;1.50;63.20
7447;DHT22;3765;47.962;7.952;2023-04-06T05:57:01;1.80;63.00
7447;DHT22;3765;47.962;7.952;2023-04-06T05:59:30;2.10;62.80
7447;DHT22;3765;47.962;7.952;2023-04-06T06:02:00;2.10;62.30
7447;DHT22;3765;47.962;7.952;2023-04-06T06:04:28;1.90;62.20
7447;DHT22;3765;47.962;7.952;2023-04-06T06:06:57;1.90;62.20
7447;DHT22;3765;47.962;7.952;2023-04-06T06:09:25;1.90;62.30
7447;DHT22;3765;47.962;7.952;2023-04-06T06:11:53;2.00;62.30
7447;DHT22;3765;47.962;7.952;2023-04-06T06:14:21;2.00;62.20
7447;DHT22;3765;47.962;7.952;2023-04-06T06:16:50;2.10;62.00
7447;DHT22;3765;47.962;7.952;2023-04-06T06:19:19;2.30;62.00
7447;DHT22;3765;47.962;7.952;2023-04-06T06:21:47;2.40;61.90
7447;DHT22;3765;47.962;7.952;2023-04-06T06:24:16;2.60;61.70
7447;DHT22;3765;47.962;7.952;2023-04-06T06:26:44;2.70;61.60
7447;DHT22;3765;47.962;7.952;2023-04-06T06:29:12;2.80;61.40
7447;DHT22;3765;47.962;7.952;2023-04-06T06:31:40;2.90;61.20
7447;DHT22;3765;47.962;7.952;2023-04-06T06:34:09;3.00;61.00
7447;DHT22;3765;47.962;7.952;2023-04-06T06:36:38;3.10;60.70
7447;DHT22;3765;47.962;7.952;2023-04-06T06:39:07;3.30;60.60
7447;DHT22;3765;47.962;7.952;2023-04-06T06:41:35;3.40;60.40
7447;DHT22;3765;47.962;7.952;2023-04-06T06:44:04;3.50;60.20
7447;DHT22;3765;47.962;7.952;2023-04-06T06:46:32;3.70;59.90
7447;DHT22;3765;47.962;7.952;2023-04-06T06:49:01;3.80;59.70
7447;DHT22;3765;47.962;7.952;2023-04-06T06:51:29;3.90;59.60
7447;DHT22;3765;47.962;7.952;2023-04-06T06:53:59;4.10;59.30
7447;DHT22;3765;47.962;7.952;2023-04-06T06:56:27;4.30;59.20
7447;DHT22;3765;47.962;7.952;2023-04-06T06:58:56;4.40;58.90
7447;DHT22;3765;47.962;7.952;2023-04-06T07:01:24;4.60;58.50
7447;DHT22;3765;47.962;7.952;2023-04-06T07:03:52;4.70;58.40
7447;DHT22;3765;47.962;7.952;2023-04-06T07:06:21;4.90;58.10
7447;DHT22;3765;47.962;7.952;2023-04-06T07:08:49;5.00;57.90
7447;DHT22;3765;47.962;7.952;2023-04-06T07:11:19;5.10;57.80
7447;DHT22;3765;47.962;7.952;2023-04-06T07:13:47;5.30;57.70
7447;DHT22;3765;47.962;7.952;2023-04-06T07:16:17;5.50;57.30
7447;DHT22;3765;47.962;7.952;2023-04-06T07:18:45;5.60;56.90
7447;DHT22;3765;47.962;7.952;2023-04-06T07:21:13;5.80;56.90
7447;DHT22;3765;47.962;7.952;2023-04-06T07:23:42;6.00;56.50
7447;DHT22;3765;47.962;7.952;2023-04-06T07:26:10;6.20;56.10
7447;DHT22;3765;47.962;7.952;2023-04-06T07:28:40;6.30;55.70
7447;DHT22;3765;47.962;7.952;2023-04-06T07:31:08;6.40;55.20
7447;DHT22;3765;47.962;7.952;2023-04-06T07:33:37;6.50;54.70
7447;DHT22;3765;47.962;7.952;2023-04-06T07:36:05;6.60;54.40
7447;DHT22;3765;47.962;7.952;2023-04-06T07:38:33;6.80;54.10
7447;DHT22;3765;47.962;7.952;2023-04-06T07:41:02;7.00;53.70
7447;DHT22;3765;47.962;7.952;2023-04-06T07:43:31;7.20;53.10
7447;DHT22;3765;47.962;7.952;2023-04-06T07:46:00;7.30;52.50
7447;DHT22;3765;47.962;7.952;2023-04-06T07:48:29;7.50;52.30
7447;DHT22;3765;47.962;7.952;2023-04-06T07:51:01;7.60;52.00
7447;DHT22;3765;47.962;7.952;2023-04-06T07:53:30;7.80;51.80
7447;DHT22;3765;47.962;7.952;2023-04-06T07:55:59;8.00;51.50
7447;DHT22;3765;47.962;7.952;2023-04-06T07:58:27;8.00;51.10
7447;DHT22;3765;47.962;7.952;2023-04-06T08:00:55;8.10;51.00
7447;DHT22;3765;47.962;7.952;2023-04-06T08:03:26;8.30;50.60
7447;DHT22;3765;47.962;7.952;2023-04-06T08:05:54;8.50;50.20
7447;DHT22;3765;47.962;7.952;2023-04-06T08:08:23;8.60;50.10
7447;DHT22;3765;47.962;7.952;2023-04-06T08:10:51;8.80;49.80
7447;DHT22;3765;47.962;7.952;2023-04-06T08:13:19;8.90;49.40
7447;DHT22;3765;47.962;7.952;2023-04-06T08:15:48;9.10;49.20
7447;DHT22;3765;47.962;7.952;2023-04-06T08:18:16;9.40;48.50
7447;DHT22;3765;47.962;7.952;2023-04-06T08:20:46;9.70;48.10
7447;DHT22;3765;47.962;7.952;2023-04-06T08:23:15;9.80;47.60
7447;DHT22;3765;47.962;7.952;2023-04-06T08:25:43;9.90;47.20
7447;DHT22;3765;47.962;7.952;2023-04-06T08:28:12;10.00;46.70
7447;DHT22;3765;47.962;7.952;2023-04-06T08:30:41;10.10;46.10
7447;DHT22;3765;47.962;7.952;2023-04-06T08:33:10;10.30;45.90
7447;DHT22;3765;47.962;7.952;2023-04-06T08:35:38;10.50;45.60
7447;DHT22;3765;47.962;7.952;2023-04-06T08:38:08;10.60;45.50
7447;DHT22;3765;47.962;7.952;2023-04-06T08:40:37;10.40;44.70
7447;DHT22;3765;47.962;7.952;2023-04-06T08:43:09;10.40;44.70
7447;DHT22;3765;47.962;7.952;2023-04-06T08:45:41;10.60;44.50
7447;DHT22;3765;47.962;7.952;2023-04-06T08:48:10;10.60;44.30
7447;DHT22;3765;47.962;7.952;2023-04-06T08:50:39;10.40;44.10
7447;DHT22;3765;47.962;7.952;2023-04-06T08:53:10;10.00;44.20
7447;DHT22;3765;47.962;7.952;2023-04-06T08:55:39;10.20;44.40
7447;DHT22;3765;47.962;7.952;2023-04-06T08:58:08;10.30;43.90
7447;DHT22;3765;47.962;7.952;2023-04-06T09:00:37;10.50;44.20
7447;DHT22;3765;47.962;7.952;2023-04-06T09:03:07;10.60;44.10
7447;DHT22;3765;47.962;7.952;2023-04-06T09:05:36;10.40;43.50
7447;DHT22;3765;47.962;7.952;2023-04-06T09:08:06;10.60;44.10
7447;DHT22;3765;47.962;7.952;2023-04-06T09:10:36;10.80;43.70
7447;DHT22;3765;47.962;7.952;2023-04-06T09:13:08;10.80;43.50
7447;DHT22;3765;47.962;7.952;2023-04-06T09:15:37;10.90;43.20
7447;DHT22;3765;47.962;7.952;2023-04-06T09:18:05;10.90;42.40
7447;DHT22;3765;47.962;7.952;2023-04-06T09:20:35;11.20;43.10
7447;DHT22;3765;47.962;7.952;2023-04-06T09:23:03;11.40;42.50
7447;DHT22;3765;47.962;7.952;2023-04-06T09:25:31;11.60;42.30
7447;DHT22;3765;47.962;7.952;2023-04-06T09:28:03;11.70;42.10
7447;DHT22;3765;47.962;7.952;2023-04-06T09:30:33;11.80;41.80
7447;DHT22;3765;47.962;7.952;2023-04-06T09:33:02;12.00;41.50
7447;DHT22;3765;47.962;7.952;2023-04-06T09:35:31;12.00;41.10
7447;DHT22;3765;47.962;7.952;2023-04-06T09:38:10;12.20;41.10
7447;DHT22;3765;47.962;7.952;2023-04-06T09:40:48;12.20;40.90
7447;DHT22;3765;47.962;7.952;2023-04-06T09:43:28;12.20;40.70
7447;DHT22;3765;47.962;7.952;2023-04-06T09:45:57;12.40;40.60
7447;DHT22;3765;47.962;7.952;2023-04-06T09:48:26;12.50;39.90
7447;DHT22;3765;47.962;7.952;2023-04-06T09:50:59;12.40;40.00
7447;DHT22;3765;47.962;7.952;2023-04-06T09:53:31;12.50;39.20
7447;DHT22;3765;47.962;7.952;2023-04-06T09:56:02;12.80;39.40
7447;DHT22;3765;47.962;7.952;2023-04-06T09:58:36;12.70;38.10
7447;DHT22;3765;47.962;7.952;2023-04-06T10:01:09;12.80;38.90
7447;DHT22;3765;47.962;7.952;2023-04-06T10:03:44;12.80;38.90
7447;DHT22;3765;47.962;7.952;2023-04-06T10:06:15;12.80;38.70
7447;DHT22;3765;47.962;7.952;2023-04-06T10:08:48;13.10;38.70
7447;DHT22;3765;47.962;7.952;2023-04-06T10:11:18;13.20;38.40
7447;DHT22;3765;47.962;7.952;2023-04-06T10:13:48;13.10;37.70
7447;DHT22;3765;47.962;7.952;2023-04-06T10:16:18;13.20;37.90
7447;DHT22;3765;47.962;7.952;2023-04-06T10:18:49;13.30;37.80
7447;DHT22;3765;47.962;7.952;2023-04-06T10:21:21;13.30;37.60
7447;DHT22;3765;47.962;7.952;2023-04-06T10:23:54;13.30;37.40
7447;DHT22;3765;47.962;7.952;2023-04-06T10:26:25;13.30;37.60
7447;DHT22;3765;47.962;7.952;2023-04-06T10:28:54;13.40;37.30
7447;DHT22;3765;47.962;7.952;2023-04-06T10:31:27;13.30;37.00
7447;DHT22;3765;47.962;7.952;2023-04-06T10:33:56;13.30;37.10
7447;DHT22;3765;47.962;7.952;2023-04-06T10:36:26;13.10;37.00
7447;DHT22;3765;47.962;7.952;2023-04-06T10:38:56;13.10;37.00
7447;DHT22;3765;47.962;7.952;2023-04-06T10:41:33;13.10;37.10
7447;DHT22;3765;47.962;7.952;2023-04-06T10:44:03;13.30;36.90
7447;DHT22;3765;47.962;7.952;2023-04-06T10:46:34;13.30;36.60
7447;DHT22;3765;47.962;7.952;2023-04-06T10:49:12;13.30;36.70
7447;DHT22;3765;47.962;7.952;2023-04-06T10:51:40;13.60;36.30
7447;DHT22;3765;47.962;7.952;2023-04-06T10:54:09;13.60;36.30
7447;DHT22;3765;47.962;7.952;2023-04-06T10:56:39;13.80;36.40
7447;DHT22;3765;47.962;7.952;2023-04-06T10:59:09;13.90;36.30
7447;DHT22;3765;47.962;7.952;2023-04-06T11:01:37;13.80;36.10
7447;DHT22;3765;47.962;7.952;2023-04-06T11:04:06;13.60;36.60
7447;DHT22;3765;47.962;7.952;2023-04-06T11:06:37;13.80;36.40
7447;DHT22;3765;47.962;7.952;2023-04-06T11:09:06;14.00;36.40
7447;DHT22;3765;47.962;7.952;2023-04-06T11:11:39;14.30;35.90
7447;DHT22;3765;47.962;7.952;2023-04-06T11:14:11;14.20;35.90
7447;DHT22;3765;47.962;7.952;2023-04-06T11:16:39;14.00;35.90
7447;DHT22;3765;47.962;7.952;2023-04-06T11:19:08;13.60;35.50
7447;DHT22;3765;47.962;7.952;2023-04-06T11:21:38;13.90;35.40
7447;DHT22;3765;47.962;7.952;2023-04-06T11:24:08;14.30;35.00
7447;DHT22;3765;47.962;7.952;2023-04-06T11:26:40;14.60;34.50
7447;DHT22;3765;47.962;7.952;2023-04-06T11:29:10;14.70;34.00
7447;DHT22;3765;47.962;7.952;2023-04-06T11:31:42;14.80;33.90
7447;DHT22;3765;47.962;7.952;2023-04-06T11:34:15;14.70;33.50
7447;DHT22;3765;47.962;7.952;2023-04-06T11:36:44;14.70;33.30
7447;DHT22;3765;47.962;7.952;2023-04-06T11:39:13;14.80;33.30
7447;DHT22;3765;47.962;7.952;2023-04-06T11:41:42;15.20;33.20
7447;DHT22;3765;47.962;7.952;2023-04-06T11:44:31;15.00;32.40
7447;DHT22;3765;47.962;7.952;2023-04-06T11:47:01;15.20;32.60
7447;DHT22;3765;47.962;7.952;2023-04-06T11:49:29;15.50;32.30
7447;DHT22;3765;47.962;7.952;2023-04-06T11:51:59;15.30;31.90
7447;DHT22;3765;47.962;7.952;2023-04-06T11:54:32;15.10;31.70
7447;DHT22;3765;47.962;7.952;2023-04-06T11:57:00;15.30;31.70
7447;DHT22;3765;47.962;7.952;2023-04-06T11:59:30;15.30;30.50
7447;DHT22;3765;47.962;7.952;2023-04-06T12:01:59;15.70;30.70
7447;DHT22;3765;47.962;7.952;2023-04-06T12:04:27;15.80;30.70
7447;DHT22;3765;47.962;7.952;2023-04-06T12:06:56;15.70;30.80
7447;DHT22;3765;47.962;7.952;2023-04-06T12:09:24;16.10;30.60
7447;DHT22;3765;47.962;7.952;2023-04-06T12:11:53;16.00;30.00
7447;DHT22;3765;47.962;7.952;2023-04-06T12:14:21;15.90;30.20
7447;DHT22;3765;47.962;7.952;2023-04-06T12:16:51;16.00;29.90
7447;DHT22;3765;47.962;7.952;2023-04-06T12:19:19;15.90;30.00
7447;DHT22;3765;47.962;7.952;2023-04-06T12:21:47;16.00;29.90
7447;DHT22;3765;47.962;7.952;2023-04-06T12:24:16;16.10;30.00
7447;DHT22;3765;47.962;7.952;2023-04-06T12:26:44;16.10;30.00
7447;DHT22;3765;47.962;7.952;2023-04-06T12:29:14;16.10;29.70
7447;DHT22;3765;47.962;7.952;2023-04-06T12:31:42;16.40;29.90
7447;DHT22;3765;47.962;7.952;2023-04-06T12:34:13;16.70;29.70
7447;DHT22;3765;47.962;7.952;2023-04-06T12:36:41;16.70;29.50
7447;DHT22;3765;47.962;7.952;2023-04-06T12:39:10;16.60;29.80
7447;DHT22;3765;47.962;7.952;2023-04-06T12:41:38;16.70;29.80
7447;DHT22;3765;47.962;7.952;2023-04-06T12:44:07;16.80;29.30
7447;DHT22;3765;47.962;7.952;2023-04-06T12:46:36;16.60;29.60
7447;DHT22;3765;47.962;7.952;2023-04-06T12:49:04;16.50;30.00
7447;DHT22;3765;47.962;7.952;2023-04-06T12:51:34;16.40;29.90
7447;DHT22;3765;47.962;7.952;2023-04-06T12:54:02;15.70;29.50
7447;DHT22;3765;47.962;7.952;2023-04-06T12:56:30;15.50;30.00
7447;DHT22;3765;47.962;7.952;2023-04-06T12:58:59;15.80;30.30
7447;DHT22;3765;47.962;7.952;2023-04-06T13:01:28;16.00;30.10
7447;DHT22;3765;47.962;7.952;2023-04-06T13:03:56;16.50;29.90
7447;DHT22;3765;47.962;7.952;2023-04-06T13:06:26;16.40;29.40
7447;DHT22;3765;47.962;7.952;2023-04-06T13:08:56;16.20;29.20
7447;DHT22;3765;47.962;7.952;2023-04-06T13:11:25;15.90;29.20
7447;DHT22;3765;47.962;7.952;2023-04-06T13:13:54;16.00;29.40
7447;DHT22;3765;47.962;7.952;2023-04-06T13:16:23;16.20;29.00
7447;DHT22;3765;47.962;7.952;2023-04-06T13:18:51;16.20;28.90
7447;DHT22;3765;47.962;7.952;2023-04-06T13:21:19;16.10;28.00
7447;DHT22;3765;47.962;7.952;2023-04-06T13:23:48;15.80;28.70
7447;DHT22;3765;47.962;7.952;2023-04-06T13:26:17;15.80;28.90
7447;DHT22;3765;47.962;7.952;2023-04-06T13:28:46;15.90;28.70
7447;DHT22;3765;47.962;7.952;2023-04-06T13:31:15;16.30;28.40
7447;DHT22;3765;47.962;7.952;2023-04-06T13:33:43;16.20;28.40
7447;DHT22;3765;47.962;7.952;2023-04-06T13:36:11;16.30;28.50
7447;DHT22;3765;47.962;7.952;2023-04-06T13:38:43;16.60;28.40
7447;DHT22;3765;47.962;7.952;2023-04-06T13:41:19;16.60;28.40
7447;DHT22;3765;47.962;7.952;2023-04-06T13:43:49;16.60;28.30
7447;DHT22;3765;47.962;7.952;2023-04-06T13:46:17;16.80;28.20
7447;DHT22;3765;47.962;7.952;2023-04-06T13:48:46;16.60;28.30
7447;DHT22;3765;47.962;7.952;2023-04-06T13:51:14;16.50;28.60
7447;DHT22;3765;47.962;7.952;2023-04-06T13:53:43;16.60;28.50
7447;DHT22;3765;47.962;7.952;2023-04-06T13:56:11;16.70;28.40
7447;DHT22;3765;47.962;7.952;2023-04-06T13:58:40;16.50;28.50
7447;DHT22;3765;47.962;7.952;2023-04-06T14:01:09;16.50;28.00
7447;DHT22;3765;47.962;7.952;2023-04-06T14:03:37;16.50;28.30
7447;DHT22;3765;47.962;7.952;2023-04-06T14:06:11;16.40;28.20
7447;DHT22;3765;47.962;7.952;2023-04-06T14:08:43;16.10;28.30
7447;DHT22;3765;47.962;7.952;2023-04-06T14:11:11;16.00;28.30
7447;DHT22;3765;47.962;7.952;2023-04-06T14:13:41;15.80;28.20
7447;DHT22;3765;47.962;7.952;2023-04-06T14:16:10;16.00;28.50
7447;DHT22;3765;47.962;7.952;2023-04-06T14:18:38;16.00;28.50
7447;DHT22;3765;47.962;7.952;2023-04-06T14:21:06;15.70;28.70
7447;DHT22;3765;47.962;7.952;2023-04-06T14:23:34;15.60;28.90
7447;DHT22;3765;47.962;7.952;2023-04-06T14:26:04;15.30;29.10
7447;DHT22;3765;47.962;7.952;2023-04-06T14:28:33;15.10;29.20
7447;DHT22;3765;47.962;7.952;2023-04-06T14:31:11;14.90;29.40
7447;DHT22;3765;47.962;7.952;2023-04-06T14:33:40;14.70;29.80
7447;DHT22;3765;47.962;7.952;2023-04-06T14:36:09;14.80;30.10
7447;DHT22;3765;47.962;7.952;2023-04-06T14:38:38;15.00;30.10
7447;DHT22;3765;47.962;7.952;2023-04-06T14:41:14;15.20;29.90
7447;DHT22;3765;47.962;7.952;2023-04-06T14:43:43;15.10;29.90
7447;DHT22;3765;47.962;7.952;2023-04-06T14:46:13;15.10;29.80
7447;DHT22;3765;47.962;7.952;2023-04-06T14:48:42;15.10;29.90
7447;DHT22;3765;47.962;7.952;2023-04-06T14:51:11;14.60;30.00
7447;DHT22;3765;47.962;7.952;2023-04-06T14:53:39;14.80;30.20
7447;DHT22;3765;47.962;7.952;2023-04-06T14:56:07;14.80;30.40
7447;DHT22;3765;47.962;7.952;2023-04-06T14:58:36;14.80;30.50
7447;DHT22;3765;47.962;7.952;2023-04-06T15:01:04;14.80;30.60
7447;DHT22;3765;47.962;7.952;2023-04-06T15:03:34;14.90;30.60
7447;DHT22;3765;47.962;7.952;2023-04-06T15:06:03;14.90;30.50
7447;DHT22;3765;47.962;7.952;2023-04-06T15:08:32;15.10;30.70
7447;DHT22;3765;47.962;7.952;2023-04-06T15:11:03;15.00;30.70
7447;DHT22;3765;47.962;7.952;2023-04-06T15:13:31;15.00;30.70
7447;DHT22;3765;47.962;7.952;2023-04-06T15:15:59;14.80;30.90
7447;DHT22;3765;47.962;7.952;2023-04-06T15:18:28;14.80;31.00
7447;DHT22;3765;47.962;7.952;2023-04-06T15:20:57;14.80;31.00
7447;DHT22;3765;47.962;7.952;2023-04-06T15:23:26;14.80;31.10
7447;DHT22;3765;47.962;7.952;2023-04-06T15:25:56;15.00;31.20
7447;DHT22;3765;47.962;7.952;2023-04-06T15:28:25;14.80;31.00
7447;DHT22;3765;47.962;7.952;2023-04-06T15:30:53;14.80;31.30
7447;DHT22;3765;47.962;7.952;2023-04-06T15:33:21;14.80;31.20
7447;DHT22;3765;47.962;7.952;2023-04-06T15:35:50;14.80;31.20
7447;DHT22;3765;47.962;7.952;2023-04-06T15:38:19;14.70;31.20
7447;DHT22;3765;47.962;7.952;2023-04-06T15:40:48;14.60;31.30
7447;DHT22;3765;47.962;7.952;2023-04-06T15:43:17;14.30;31.30
7447;DHT22;3765;47.962;7.952;2023-04-06T15:45:45;14.20;31.50
7447;DHT22;3765;47.962;7.952;2023-04-06T15:48:13;14.10;31.50
7447;DHT22;3765;47.962;7.952;2023-04-06T15:50:41;13.90;31.90
7447;DHT22;3765;47.962;7.952;2023-04-06T15:53:09;13.80;32.10
7447;DHT22;3765;47.962;7.952;2023-04-06T15:55:39;13.30;32.70
7447;DHT22;3765;47.962;7.952;2023-04-06T15:58:08;12.80;32.90
7447;DHT22;3765;47.962;7.952;2023-04-06T16:00:36;12.80;33.30
7447;DHT22;3765;47.962;7.952;2023-04-06T16:03:04;12.90;33.70
7447;DHT22;3765;47.962;7.952;2023-04-06T16:05:33;12.80;33.70
7447;DHT22;3765;47.962;7.952;2023-04-06T16:08:19;12.80;33.90
7447;DHT22;3765;47.962;7.952;2023-04-06T16:10:49;12.80;34.20
7447;DHT22;3765;47.962;7.952;2023-04-06T16:13:17;12.70;34.10
7447;DHT22;3765;47.962;7.952;2023-04-06T16:15:49;12.50;34.00
7447;DHT22;3765;47.962;7.952;2023-04-06T16:18:17;12.40;34.30
7447;DHT22;3765;47.962;7.952;2023-04-06T16:20:46;12.50;34.40